Shrewsbury, Vermont
Current Conditions -  °F | °C
As of 2:15 AM on Thursday 18 Dec 2014 (Local Time) from KRUT Reporting Station
Broken Clouds Broken Clouds  
Wind Chill: 27°   Ceiling: 3000
Heat Index: 34°   Visibility: 9mi
Dew Point: 30°   Wind: 8mph
Humidity: 87%   Direction: 250°WSW
Pressure: 29.75"   Gusts: NA
Location:  43.5432°N, 72.8545°W
Report Text: KRUT 180715Z 25007KT 9SM FEW018 SCT025 BKN030 01/M01 A2975 RMK AO1
Loading
Personal Weather Stations






























Interactive Weather Map New forecast layout! Learn more

10-Day Weather Forecast

Advertisements
Track Severe Weather on mobile